MDT,Max TemperatureF,Mean TemperatureF,Min TemperatureF,Max Dew PointF,MeanDew PointF,Min DewpointF,Max Humidity, Mean Humidity, Min Humidity, Max Sea Level PressureIn, Mean Sea Level PressureIn, Min Sea Level PressureIn, Max VisibilityMiles, Mean VisibilityMiles, Min VisibilityMiles, Max Wind SpeedMPH, Mean Wind SpeedMPH, Max Gust SpeedMPH,PrecipitationIn, CloudCover, Events, WindDirDegrees
2013-3-1,44,30,17,28,23,12,93,69,43,30.27,30.18,30.07,10,10,10,15,7,,0.00,2,,198
2013-3-2,55,44,32,36,31,27,87,65,44,30.09,30.01,29.84,10,10,10,17,6,17,0.00,1,,301
2013-3-3,55,42,30,37,32,28,93,77,44,29.83,29.64,29.51,10,9,2,25,6,37,0.07,5,,238
2013-3-4,30,20,10,25,14,5,93,81,69,30.33,29.96,29.63,10,6,0,38,22,47,0.00,6,,316
2013-3-5,17,10,3,10,6,-2,92,79,67,30.40,30.32,30.20,10,10,10,16,9,22,0.00,2,,314
2013-3-6,28,19,10,21,14,5,92,81,69,30.19,30.02,29.84,10,10,10,21,9,24,0.00,1,,82
2013-3-7,35,25,15,28,21,10,93,83,70,30.12,29.98,29.83,10,10,10,16,6,21,0.00,2,,321
2013-3-8,28,24,19,27,22,16,93,89,74,30.13,30.04,29.92,10,7,2,15,8,,0.00,4,,50
2013-3-9,33,26,17,28,22,12,93,81,64,30.23,30.04,29.89,10,8,3,24,9,29,0.00,4,,326
2013-3-10,42,27,12,25,17,9,100,68,36,30.26,30.12,29.87,10,8,3,9,4,,0.00,1,,198
2013-3-11,37,28,19,27,20,10,80,65,44,30.22,29.98,29.82,10,10,9,31,17,43,0.00,3,,309
2013-3-12,33,24,14,18,13,10,93,64,41,30.32,30.25,30.11,10,10,10,24,14,31,0.00,2,,331
2013-3-13,62,44,26,37,29,18,93,62,37,30.12,30.01,29.93,10,10,3,17,9,24,0.00,2,,223
2013-3-14,64,46,28,39,32,25,93,68,34,30.10,30.05,29.99,10,9,5,18,9,24,0.00,3,,330
2013-3-15,42,32,19,34,26,14,100,86,61,30.14,29.94,29.85,10,5,0,26,10,33,0.00,8,,11
2013-3-16,19,17,15,16,11,9,93,77,68,30.16,30.06,29.86,10,8,1,17,9,18,0.00,7,,50
2013-3-17,30,18,5,27,16,-4,100,81,66,29.87,29.63,29.42,10,8,0,37,12,48,0.02,6,,139
2013-3-18,26,13,0,16,4,-8,93,70,54,30.00,29.92,29.87,10,10,6,25,14,36,0.02,1,,237
2013-3-19,23,16,8,21,8,3,100,73,46,30.35,30.21,29.89,10,10,10,30,11,37,0.00,1,,312
2013-3-20,39,24,10,21,12,1,85,59,41,30.31,30.02,29.77,10,10,10,21,8,25,0.00,1,,120
2013-3-21,30,26,21,21,14,9,86,65,50,29.86,29.77,29.69,10,8,0,20,11,26,0.00,6,,119
2013-3-22,26,18,10,23,17,7,93,81,68,30.11,29.93,29.82,10,7,1,21,6,25,0.02,6,,319
2013-3-23,21,11,1,12,7,-4,92,75,58,30.25,30.19,30.11,10,9,2,22,12,25,0.00,2,,295
2013-3-24,19,10,0,12,6,-9,100,79,56,30.34,30.29,30.23,10,8,2,20,12,22,0.00,1,,314
2013-3-25,28,14,0,18,7,-9,100,78,64,30.34,30.27,30.14,10,9,0,9,4,,0.00,1,,164
2013-3-26,41,26,10,27,18,1,100,72,53,30.13,30.05,30.01,10,10,10,9,4,,0.00,0,,165
2013-3-27,46,32,19,34,26,18,100,81,50,30.10,30.06,30.03,10,10,2,13,4,,0.00,0,,49
2013-3-28,53,38,24,37,30,21,100,79,47,30.12,30.09,30.06,10,7,1,14,7,,0.00,1,,44
2013-3-29,57,45,33,41,34,30,93,73,44,30.10,30.03,29.98,10,8,2,15,6,21,0.00,2,,351
2013-3-30,53,40,28,37,30,21,93,71,46,30.13,30.08,30.05,10,10,10,30,9,37,0.00,0,,314
2013-3-31,30,26,21,25,21,16,93,77,64,30.22,30.13,30.03,10,9,2,16,8,20,0.00,5,,36